Time;durP1;ratioP1;P1;durP2;ratioP2;P2;SDS_P1;SDS_P2;PMS_P1;PMS_P2;Temp;Humidity;BMP_temperature;BMP_pressure;BME280_temperature;BME280_humidity;BME280_pressure;Samples;Min_cycle;Max_cycle;Signal;HPM_P1;HPM_P2
2021/08/31 00:01:50;;;;;;;14.27;10.13;;;;;;;;;;5012958;28;20033;-82
2021/08/31 00:04:15;;;;;;;14.48;9.88;;;16.00;99.90;;;;;;5007022;28;20053;-80
2021/08/31 00:06:41;;;;;;;14.23;10.07;;;16.00;99.90;;;;;;4990760;28;20191;-81
2021/08/31 00:09:06;;;;;;;13.20;9.20;;;16.40;99.90;;;;;;4993960;28;20396;-80
2021/08/31 00:11:32;;;;;;;14.20;9.82;;;16.00;99.90;;;;;;4992235;28;20026;-81
2021/08/31 00:13:58;;;;;;;17.52;10.02;;;16.00;99.90;;;;;;4995750;28;20018;-80
2021/08/31 00:16:23;;;;;;;14.30;10.13;;;16.60;99.90;;;;;;4996725;28;20049;-80
2021/08/31 00:18:49;;;;;;;15.93;10.00;;;16.50;99.90;;;;;;5011483;28;20034;-83
2021/08/31 00:21:14;;;;;;;16.90;10.50;;;17.00;99.90;;;;;;5011689;28;20022;-80
2021/08/31 00:23:40;;;;;;;14.23;9.52;;;17.80;99.90;;;;;;5007995;28;20053;-77
2021/08/31 00:26:06;;;;;;;17.52;10.25;;;17.10;99.90;;;;;;4994886;28;20044;-81
2021/08/31 00:28:31;;;;;;;13.82;9.65;;;16.10;99.90;;;;;;4995975;28;20099;-80
2021/08/31 00:30:57;;;;;;;14.88;9.65;;;16.70;99.90;;;;;;4994852;28;20045;-81
2021/08/31 00:33:23;;;;;;;17.08;10.38;;;17.40;99.90;;;;;;4997395;28;20049;-82
2021/08/31 00:35:48;;;;;;;14.18;9.60;;;16.00;99.90;;;;;;5006783;28;20387;-81
2021/08/31 00:38:14;;;;;;;13.77;9.63;;;15.90;99.90;;;;;;4996364;28;20114;-81
2021/08/31 00:40:40;;;;;;;13.38;9.35;;;17.90;99.90;;;;;;4993180;28;20407;-78
2021/08/31 00:43:06;;;;;;;13.05;8.60;;;15.70;99.90;;;;;;5009837;28;20516;-80
2021/08/31 00:45:35;;;;;;;11.27;8.77;;;15.80;99.90;;;;;;4995092;28;20027;-82
2021/08/31 00:48:02;;;;;;;13.23;9.05;;;15.70;99.90;;;;;;5005746;28;20049;-80
2021/08/31 00:50:28;;;;;;;14.90;9.70;;;15.70;99.90;;;;;;4991195;28;20057;-80
2021/08/31 00:52:53;;;;;;;15.88;9.70;;;15.70;99.90;;;;;;5011495;28;20018;-82
2021/08/31 00:55:19;;;;;;;14.43;9.32;;;15.60;99.90;;;;;;5011090;28;20026;-80
2021/08/31 00:57:44;;;;;;;16.38;9.25;;;15.50;99.90;;;;;;5010077;28;20026;-80
2021/08/31 01:00:13;;;;;;;13.10;8.88;;;15.60;99.90;;;;;;5010167;28;20032;-81
2021/08/31 01:02:38;;;;;;;12.98;9.13;;;15.60;99.90;;;;;;4994619;28;20034;-82
2021/08/31 01:05:06;;;;;;;14.73;9.05;;;15.50;99.90;;;;;;5012340;28;20027;-83
2021/08/31 01:07:32;;;;;;;14.65;9.57;;;15.50;99.90;;;;;;5007995;28;20072;-83
2021/08/31 01:09:58;;;;;;;12.48;8.55;;;15.50;99.90;;;;;;5023801;28;20025;-80
2021/08/31 01:12:27;;;;;;;14.52;9.57;;;15.40;99.90;;;;;;4986300;28;20092;-81
2021/08/31 01:14:53;;;;;;;11.48;8.02;;;15.30;99.90;;;;;;5008574;28;20025;-78
2021/08/31 01:17:18;;;;;;;12.90;9.13;;;16.60;99.90;;;;;;5009460;28;20503;-80
2021/08/31 01:19:50;;;;;;;15.43;9.05;;;15.30;99.90;;;;;;5007116;28;20076;-80
2021/08/31 01:22:15;;;;;;;12.38;8.60;;;15.20;99.90;;;;;;5006369;28;20033;-79
2021/08/31 01:24:43;;;;;;;13.60;8.98;;;15.30;99.90;;;;;;5007700;28;20033;-79
2021/08/31 01:27:09;;;;;;;15.32;9.00;;;15.20;99.90;;;;;;5002603;28;20026;-78
2021/08/31 01:29:35;;;;;;;18.13;10.10;;;15.10;99.90;;;;;;4993829;28;20057;-81
2021/08/31 01:32:03;;;;;;;14.38;8.93;;;15.10;99.90;;;;;;4989546;28;20424;-77
2021/08/31 01:34:29;;;;;;;13.40;9.75;;;15.10;99.90;;;;;;5009531;28;20124;-79
2021/08/31 01:36:55;;;;;;;12.48;8.65;;;15.00;99.90;;;;;;4993577;28;20072;-81
2021/08/31 01:39:21;;;;;;;15.05;8.70;;;15.00;99.90;;;;;;4995042;28;20022;-82
2021/08/31 01:41:46;;;;;;;12.27;8.52;;;15.60;99.90;;;;;;4995542;28;20029;-80
2021/08/31 01:44:12;;;;;;;11.18;7.93;;;15.00;99.90;;;;;;4991371;28;20038;-81
2021/08/31 01:46:38;;;;;;;15.75;9.77;;;15.40;99.90;;;;;;4995856;28;20443;-81
2021/08/31 01:49:04;;;;;;;13.85;8.23;;;14.90;99.90;;;;;;5001807;28;20032;-82
2021/08/31 01:51:30;;;;;;;12.07;8.27;;;14.80;99.90;;;;;;5001479;28;20034;-81
2021/08/31 01:53:55;;;;;;;12.82;8.38;;;14.80;99.90;;;;;;5012554;28;20034;-80
2021/08/31 01:56:21;;;;;;;13.10;8.68;;;14.80;99.90;;;;;;4996300;28;20384;-80
2021/08/31 01:58:47;;;;;;;13.10;8.65;;;14.70;99.90;;;;;;4996931;28;20031;-81
2021/08/31 02:01:12;;;;;;;12.32;8.50;;;14.70;99.90;;;;;;4999412;28;20026;-82
2021/08/31 02:03:38;;;;;;;16.52;9.43;;;16.40;99.90;;;;;;5010066;28;20030;-82
2021/08/31 02:06:04;;;;;;;11.93;8.75;;;14.60;99.90;;;;;;5014556;28;20053;-82
2021/08/31 02:08:30;;;;;;;12.20;9.13;;;16.70;99.90;;;;;;4999924;28;20515;-81
2021/08/31 02:10:55;;;;;;;13.35;8.20;;;14.60;99.90;;;;;;4995441;28;20045;-82
2021/08/31 02:13:21;;;;;;;12.75;8.55;;;;;;;;;;4994093;28;20053;-81
2021/08/31 02:15:47;;;;;;;15.57;9.10;;;14.60;99.90;;;;;;5010864;28;20029;-83
2021/08/31 02:18:12;;;;;;;14.10;8.88;;;14.80;99.90;;;;;;4997213;28;20029;-81
2021/08/31 02:20:38;;;;;;;12.35;9.05;;;14.70;99.90;;;;;;4996807;28;20579;-80
2021/08/31 02:23:04;;;;;;;10.85;8.20;;;15.10;99.90;;;;;;4998961;28;20408;-82
2021/08/31 02:25:30;;;;;;;17.30;9.48;;;14.70;99.90;;;;;;4992990;28;20125;-82
2021/08/31 02:27:55;;;;;;;12.15;8.55;;;14.60;99.90;;;;;;5000388;28;20060;-80
2021/08/31 02:30:21;;;;;;;13.10;8.20;;;14.50;99.90;;;;;;4996004;28;20565;-78
2021/08/31 02:32:48;;;;;;;11.65;8.35;;;14.50;99.90;;;;;;5016456;28;20026;-82
2021/08/31 02:35:15;;;;;;;16.30;8.93;;;14.50;99.90;;;;;;4996235;28;20032;-81
2021/08/31 02:37:41;;;;;;;14.48;9.15;;;14.50;99.90;;;;;;5009319;28;20226;-82
2021/08/31 02:40:07;;;;;;;13.68;8.82;;;14.50;99.90;;;;;;4996887;28;20480;-84
2021/08/31 02:42:32;;;;;;;14.85;9.98;;;14.50;99.90;;;;;;5001983;28;20086;-83
2021/08/31 02:44:58;;;;;;;14.55;9.10;;;14.50;99.90;;;;;;5021393;28;20204;-80
2021/08/31 02:47:24;;;;;;;13.23;8.63;;;14.50;99.90;;;;;;5016959;28;20030;-81
2021/08/31 02:49:49;;;;;;;13.82;8.63;;;14.40;99.90;;;;;;4997550;28;20396;-81
2021/08/31 02:52:15;;;;;;;16.70;9.90;;;14.50;99.90;;;;;;5007371;28;20030;-80
2021/08/31 02:54:41;;;;;;;16.77;10.07;;;14.40;99.90;;;;;;4993732;28;20061;-80
2021/08/31 02:57:07;;;;;;;13.45;9.48;;;14.30;99.90;;;;;;4991828;28;20033;-80
2021/08/31 02:59:33;;;;;;;12.88;8.88;;;14.40;99.90;;;;;;4997315;28;20060;-80
2021/08/31 03:02:05;;;;;;;11.90;8.82;;;14.40;99.90;;;;;;4994387;28;20206;-82
2021/08/31 03:04:36;;;;;;;13.32;9.13;;;14.40;99.90;;;;;;4995902;28;20491;-82
2021/08/31 03:07:07;;;;;;;14.65;9.13;;;14.40;99.90;;;;;;5003701;28;20532;-81
2021/08/31 03:09:33;;;;;;;13.68;8.90;;;14.30;99.90;;;;;;4984925;28;20030;-83
2021/08/31 03:11:59;;;;;;;15.05;9.45;;;;;;;;;;5007496;28;20048;-80
2021/08/31 03:14:25;;;;;;;12.13;8.63;;;14.30;99.90;;;;;;5006835;28;20017;-81
2021/08/31 03:16:51;;;;;;;15.30;9.43;;;14.20;99.90;;;;;;4994500;28;20033;-80
2021/08/31 03:19:18;;;;;;;13.90;8.70;;;14.20;99.90;;;;;;5005518;28;20033;-81
2021/08/31 03:21:43;;;;;;;14.13;8.95;;;14.20;99.90;;;;;;5010964;28;20049;-80
2021/08/31 03:24:09;;;;;;;13.75;9.18;;;;;;;;;;4994307;28;20472;-79
2021/08/31 03:26:35;;;;;;;14.25;9.15;;;14.10;99.90;;;;;;5009079;28;20053;-81
2021/08/31 03:29:01;;;;;;;13.00;8.68;;;14.10;99.90;;;;;;4994439;28;20479;-80
2021/08/31 03:31:27;;;;;;;12.60;8.05;;;14.10;99.90;;;;;;5009105;28;20475;-80
2021/08/31 03:33:53;;;;;;;13.02;8.75;;;14.10;99.90;;;;;;4993414;28;20042;-81
2021/08/31 03:36:19;;;;;;;13.15;8.98;;;14.00;99.90;;;;;;4995557;28;20056;-81
2021/08/31 03:38:44;;;;;;;13.63;9.18;;;15.30;99.90;;;;;;4992790;28;20030;-83
2021/08/31 03:41:10;;;;;;;13.55;8.82;;;14.10;99.90;;;;;;5002073;28;20041;-79
2021/08/31 03:43:35;;;;;;;13.45;9.30;;;14.10;99.90;;;;;;5012290;28;20030;-82
2021/08/31 03:46:01;;;;;;;13.70;9.07;;;14.10;99.90;;;;;;5008537;28;20489;-80
2021/08/31 03:48:26;;;;;;;14.63;9.63;;;14.10;99.90;;;;;;4997293;28;20041;-82
2021/08/31 03:50:52;;;;;;;12.77;8.30;;;14.10;99.90;;;;;;4996389;28;20113;-81
2021/08/31 03:53:18;;;;;;;13.23;8.18;;;14.10;99.90;;;;;;5007030;28;20037;-80
2021/08/31 03:55:43;;;;;;;14.98;8.95;;;14.10;99.90;;;;;;5008839;28;20061;-82
2021/08/31 03:58:09;;;;;;;13.65;8.68;;;15.60;99.90;;;;;;4994938;28;20148;-81
2021/08/31 04:00:34;;;;;;;11.82;8.38;;;14.00;99.90;;;;;;4992309;28;20492;-84
2021/08/31 04:03:01;;;;;;;11.02;8.02;;;13.90;99.90;;;;;;5007616;28;20484;-83
2021/08/31 04:05:27;;;;;;;11.93;8.15;;;13.90;99.90;;;;;;4999342;28;20483;-80
2021/08/31 04:07:52;;;;;;;13.18;8.48;;;13.90;99.90;;;;;;4991462;28;20026;-81
2021/08/31 04:10:18;;;;;;;14.82;8.68;;;13.90;99.90;;;;;;4986501;28;20034;-79
2021/08/31 04:12:44;;;;;;;12.23;8.30;;;;;;;;;;4983968;28;20038;-79
2021/08/31 04:15:10;;;;;;;13.43;7.70;;;13.80;99.90;;;;;;5011721;28;20049;-81
2021/08/31 04:17:36;;;;;;;11.80;8.20;;;;;;;;;;5009400;28;20041;-78
2021/08/31 04:20:02;;;;;;;14.82;8.55;;;;;;;;;;5004930;28;20137;-82
2021/08/31 04:22:28;;;;;;;12.60;8.40;;;;;;;;;;5008216;28;20514;-80
2021/08/31 04:24:54;;;;;;;13.23;8.70;;;;;;;;;;5014970;28;20105;-79
2021/08/31 04:27:20;;;;;;;14.35;8.52;;;;;;;;;;4992770;28;20060;-81
2021/08/31 04:29:46;;;;;;;12.88;8.55;;;;;;;;;;4992781;28;20040;-80
2021/08/31 04:32:12;;;;;;;12.43;8.20;;;;;;;;;;4993176;28;20041;-82
2021/08/31 04:34:38;;;;;;;13.57;8.88;;;;;;;;;;5007052;28;20121;-79
2021/08/31 04:37:04;;;;;;;13.40;8.77;;;;;;;;;;5002979;28;20042;-80
2021/08/31 04:39:30;;;;;;;14.18;8.35;;;;;;;;;;4995016;28;20092;-81
2021/08/31 04:42:02;;;;;;;15.30;8.70;;;;;;;;;;4994013;28;20052;-83
2021/08/31 04:44:28;;;;;;;12.50;8.15;;;;;;;;;;4996948;28;20029;-81
2021/08/31 04:46:54;;;;;;;13.43;8.32;;;;;;;;;;5011427;28;20022;-82
2021/08/31 04:49:20;;;;;;;13.95;8.05;;;;;;;;;;4994908;28;20491;-80
2021/08/31 04:51:46;;;;;;;11.95;7.90;;;;;;;;;;4998827;28;20024;-81
2021/08/31 04:54:12;;;;;;;16.50;8.18;;;;;;;;;;5005289;28;20037;-81
2021/08/31 04:56:38;;;;;;;14.50;8.25;;;;;;;;;;4986767;28;20034;-80
2021/08/31 04:59:04;;;;;;;15.80;9.13;;;;;;;;;;5001452;28;20030;-81
2021/08/31 05:01:30;;;;;;;14.57;8.60;;;;;;;;;;5010506;28;20072;-79
2021/08/31 05:03:56;;;;;;;12.23;8.35;;;;;;;;;;4993348;28;20075;-83
2021/08/31 05:06:21;;;;;;;14.75;9.45;;;;;;;;;;5010872;28;20025;-80
2021/08/31 05:08:47;;;;;;;13.52;8.52;;;;;;;;;;5002455;28;20109;-79
2021/08/31 05:11:13;;;;;;;15.60;9.25;;;;;;;;;;4997149;28;20044;-80
2021/08/31 05:13:40;;;;;;;14.55;9.15;;;;;;;;;;4999111;28;20030;-80
2021/08/31 05:16:12;;;;;;;14.75;8.63;;;13.40;99.90;;;;;;5008041;28;20038;-79
2021/08/31 05:18:38;;;;;;;17.40;8.98;;;;;;;;;;5001871;28;21724;-79
2021/08/31 05:21:04;;;;;;;17.52;9.07;;;13.30;99.90;;;;;;4996179;28;20018;-79
2021/08/31 05:23:30;;;;;;;12.63;8.27;;;;;;;;;;5004082;28;20121;-78
2021/08/31 05:25:56;;;;;;;13.30;8.82;;;;;;;;;;5000889;28;20122;-80
2021/08/31 05:28:22;;;;;;;13.20;8.15;;;;;;;;;;5008878;28;20407;-79
2021/08/31 05:30:48;;;;;;;16.05;8.75;;;;;;;;;;5010432;28;20030;-79
2021/08/31 05:33:14;;;;;;;13.77;8.82;;;;;;;;;;5007726;28;20060;-82
2021/08/31 05:35:40;;;;;;;14.15;8.48;;;;;;;;;;4992904;28;20045;-81
2021/08/31 05:38:06;;;;;;;16.38;10.07;;;;;;;;;;5003691;28;20040;-84
2021/08/31 05:40:32;;;;;;;16.50;9.15;;;;;;;;;;5006510;28;20030;-82
2021/08/31 05:42:58;;;;;;;16.98;9.57;;;;;;;;;;5004361;28;20083;-82
2021/08/31 05:45:24;;;;;;;16.88;9.35;;;;;;;;;;5017169;28;20021;-84
2021/08/31 05:47:49;;;;;;;17.52;10.90;;;13.80;99.90;;;;;;5018215;28;20380;-83
2021/08/31 05:50:15;;;;;;;15.63;9.27;;;;;;;;;;5003252;28;20273;-83
2021/08/31 05:52:41;;;;;;;16.17;9.32;;;;;;;;;;4993872;28;20072;-81
2021/08/31 05:55:08;;;;;;;15.00;9.63;;;13.50;99.90;;;;;;4994087;28;20033;-81
2021/08/31 05:57:33;;;;;;;16.50;9.80;;;;;;;;;;4996307;28;20563;-82
2021/08/31 05:59:59;;;;;;;17.33;10.23;;;13.90;99.90;;;;;;5012121;28;20121;-81
2021/08/31 06:02:25;;;;;;;16.80;10.57;;;14.00;99.90;;;;;;5016036;28;20113;-81
2021/08/31 06:04:50;;;;;;;14.05;9.85;;;15.80;99.90;;;;;;4998543;28;20042;-82
2021/08/31 06:07:16;;;;;;;16.17;9.88;;;14.20;99.90;;;;;;5007524;28;20113;-79
2021/08/31 06:09:42;;;;;;;17.30;9.98;;;;;;;;;;5004297;28;20024;-81
2021/08/31 06:12:12;;;;;;;13.55;9.02;;;14.40;99.90;;;;;;5008417;28;20041;-80
2021/08/31 06:14:41;;;;;;;13.98;8.82;;;14.40;99.90;;;;;;5014132;28;20049;-80
2021/08/31 06:17:07;;;;;;;15.05;9.68;;;14.50;99.90;;;;;;5003879;28;20054;-80
2021/08/31 06:19:34;;;;;;;14.75;8.93;;;;;;;;;;4993934;28;20030;-80
2021/08/31 06:22:00;;;;;;;14.85;9.77;;;;;;;;;;5011529;28;20442;-80
2021/08/31 06:24:27;;;;;;;13.68;9.57;;;14.60;99.90;;;;;;5000616;28;20067;-83
2021/08/31 06:26:53;;;;;;;16.48;10.00;;;;;;;;;;4988193;28;20026;-80
2021/08/31 06:29:19;;;;;;;13.90;9.68;;;14.80;99.90;;;;;;4988971;28;20568;-81
2021/08/31 06:31:44;;;;;;;15.77;10.02;;;14.90;99.90;;;;;;4987758;28;20410;-79
2021/08/31 06:34:10;;;;;;;16.90;9.88;;;14.90;99.90;;;;;;5002299;28;20080;-81
2021/08/31 06:36:36;;;;;;;14.82;9.95;;;15.10;99.90;;;;;;4985058;28;20030;-83
2021/08/31 06:39:02;;;;;;;15.45;9.95;;;15.20;99.90;;;;;;4987392;28;20033;-83
2021/08/31 06:41:28;;;;;;;15.98;10.32;;;17.00;99.90;;;;;;4986110;28;20057;-83
2021/08/31 06:43:53;;;;;;;18.30;10.25;;;15.40;99.90;;;;;;5009990;28;20050;-80
2021/08/31 06:46:19;;;;;;;15.32;9.50;;;15.60;99.90;;;;;;5005288;28;20022;-84
2021/08/31 06:48:45;;;;;;;15.40;9.30;;;15.70;99.90;;;;;;4992665;28;20083;-81
2021/08/31 06:51:12;;;;;;;15.10;9.30;;;18.60;99.90;;;;;;4992341;28;20029;-81
2021/08/31 06:53:39;;;;;;;15.65;10.07;;;16.20;99.90;;;;;;4993523;28;20083;-83
2021/08/31 06:56:05;;;;;;;15.60;9.77;;;15.90;99.90;;;;;;4990181;28;20053;-80
2021/08/31 06:58:31;;;;;;;15.18;10.07;;;16.00;99.90;;;;;;5011588;28;20030;-82
2021/08/31 07:00:57;;;;;;;14.73;10.40;;;16.10;99.90;;;;;;4995396;28;20022;-83
2021/08/31 07:03:22;;;;;;;19.10;10.18;;;16.00;99.90;;;;;;5004372;28;20065;-85
2021/08/31 07:05:48;;;;;;;15.13;9.75;;;17.80;99.90;;;;;;4987956;28;20022;-79
2021/08/31 07:08:13;;;;;;;17.25;10.07;;;16.00;99.90;;;;;;4991930;28;20030;-81
2021/08/31 07:10:39;;;;;;;17.50;9.52;;;16.10;99.90;;;;;;5009448;28;20025;-79
2021/08/31 07:13:05;;;;;;;14.50;9.30;;;16.10;99.90;;;;;;4993285;28;20502;-78
2021/08/31 07:15:31;;;;;;;14.50;9.27;;;16.00;99.90;;;;;;5014337;28;20022;-81
2021/08/31 07:17:57;;;;;;;14.43;9.27;;;16.30;99.90;;;;;;4985636;28;20029;-83
2021/08/31 07:20:23;;;;;;;14.98;9.02;;;16.30;99.90;;;;;;5006113;28;20037;-81
2021/08/31 07:22:49;;;;;;;13.18;8.25;;;16.50;99.90;;;;;;4995757;28;20048;-76
2021/08/31 07:25:14;;;;;;;12.88;8.15;;;16.40;99.90;;;;;;5008379;28;20018;-80
2021/08/31 07:27:40;;;;;;;14.23;9.02;;;16.40;99.90;;;;;;4994238;28;20071;-81
2021/08/31 07:30:06;;;;;;;13.20;8.45;;;16.60;99.90;;;;;;4991489;28;20506;-81
2021/08/31 07:32:32;;;;;;;11.27;7.82;;;16.50;99.90;;;;;;4992751;28;20084;-81
2021/08/31 07:34:58;;;;;;;12.82;8.25;;;17.30;99.90;;;;;;4994961;28;20038;-79
2021/08/31 07:37:23;;;;;;;13.07;7.38;;;16.60;99.90;;;;;;4991550;28;20542;-82
2021/08/31 07:39:49;;;;;;;12.63;7.70;;;16.60;99.90;;;;;;5008311;28;20022;-79
2021/08/31 07:42:15;;;;;;;14.80;7.80;;;16.90;99.90;;;;;;5011440;28;20093;-81
2021/08/31 07:44:42;;;;;;;19.90;11.98;;;17.50;99.90;;;;;;5010277;28;20026;-78
2021/08/31 07:47:07;;;;;;;11.25;6.97;;;17.10;99.90;;;;;;5009247;28;20025;-80
2021/08/31 07:49:33;;;;;;;11.93;6.57;;;17.20;99.90;;;;;;4992130;28;20034;-81
2021/08/31 07:51:59;;;;;;;10.88;6.90;;;;;;;;;;4991644;28;20323;-81
2021/08/31 07:54:25;;;;;;;9.45;6.30;;;17.40;99.90;;;;;;4997918;28;20041;-81
2021/08/31 07:56:50;;;;;;;8.45;5.95;;;17.60;99.90;;;;;;4989706;28;20036;-80
2021/08/31 07:59:16;;;;;;;9.05;5.82;;;17.80;99.90;;;;;;4990906;28;20053;-79
2021/08/31 08:01:41;;;;;;;8.25;5.70;;;17.90;99.90;;;;;;4990399;28;20145;-81
2021/08/31 08:04:07;;;;;;;7.65;5.25;;;18.40;99.90;;;;;;4989368;28;20099;-81
2021/08/31 08:06:33;;;;;;;8.55;5.53;;;18.90;99.90;;;;;;5012411;28;20060;-80
2021/08/31 08:08:59;;;;;;;9.10;5.72;;;18.00;99.90;;;;;;4985683;28;20088;-82
2021/08/31 08:11:24;;;;;;;11.88;6.43;;;18.00;99.90;;;;;;4987234;28;20033;-81
2021/08/31 08:13:50;;;;;;;7.03;5.22;;;18.00;99.90;;;;;;5004698;28;20026;-79
2021/08/31 08:16:16;;;;;;;10.52;4.85;;;;;;;;;;4986437;28;20034;-80
2021/08/31 08:18:42;;;;;;;8.82;5.22;;;18.00;99.90;;;;;;5006197;28;20061;-81
2021/08/31 08:21:07;;;;;;;7.97;5.20;;;18.00;99.90;;;;;;4987612;28;20040;-81
2021/08/31 08:23:33;;;;;;;9.10;5.65;;;;;;;;;;5004594;28;20034;-81
2021/08/31 08:25:59;;;;;;;7.22;4.75;;;18.00;99.90;;;;;;5006510;28;20483;-80
2021/08/31 08:28:25;;;;;;;7.28;5.10;;;19.60;99.90;;;;;;5002059;28;20026;-80
2021/08/31 08:30:52;;;;;;;7.07;4.90;;;18.10;99.90;;;;;;4988803;28;20037;-82
2021/08/31 08:33:19;;;;;;;7.60;4.93;;;18.00;99.90;;;;;;5003485;28;20030;-81
2021/08/31 08:35:45;;;;;;;8.00;5.03;;;18.20;99.90;;;;;;4988143;28;20085;-81
2021/08/31 08:38:11;;;;;;;7.25;4.80;;;18.30;99.90;;;;;;4993313;28;20026;-82
2021/08/31 08:40:37;;;;;;;7.20;4.68;;;18.40;99.90;;;;;;4986046;28;20128;-81
2021/08/31 08:43:04;;;;;;;8.25;4.65;;;18.50;99.90;;;;;;4986039;28;20033;-80
2021/08/31 08:45:30;;;;;;;7.10;4.15;;;18.60;99.90;;;;;;4986974;28;20372;-81
2021/08/31 08:47:55;;;;;;;7.43;4.10;;;18.70;99.90;;;;;;5006174;28;20026;-78
2021/08/31 08:50:21;;;;;;;7.03;4.13;;;19.20;99.90;;;;;;4993123;28;20029;-77
2021/08/31 08:52:47;;;;;;;6.75;4.10;;;18.90;99.90;;;;;;4994047;28;22492;-78
2021/08/31 08:55:13;;;;;;;5.72;3.85;;;21.10;99.90;;;;;;4994701;28;20026;-80
2021/08/31 08:57:39;;;;;;;6.82;3.80;;;19.00;99.90;;;;;;4989069;28;20034;-80
2021/08/31 09:00:07;;;;;;;7.47;4.45;;;18.90;99.90;;;;;;4992482;28;20038;-80
2021/08/31 09:02:39;;;;;;;7.05;4.32;;;19.00;99.90;;;;;;5009263;28;20026;-79
2021/08/31 09:05:10;;;;;;;6.43;3.83;;;19.00;99.90;;;;;;5012501;28;20689;-78
2021/08/31 09:07:38;;;;;;;9.25;4.65;;;19.10;99.90;;;;;;5013786;28;20030;-81
2021/08/31 09:10:16;;;;;;;6.13;3.78;;;19.10;99.90;;;;;;4999570;28;20036;-79
2021/08/31 09:12:44;;;;;;;6.70;3.95;;;19.20;99.90;;;;;;5012903;28;20484;-78
2021/08/31 09:15:30;;;;;;;6.57;3.92;;;19.40;99.90;;;;;;4993623;28;20085;-80
2021/08/31 09:18:17;;;;;;;5.68;3.90;;;19.40;99.30;;;;;;5017141;28;20068;-79
2021/08/31 09:20:54;;;;;;;5.22;3.35;;;19.50;98.90;;;;;;5020078;28;20034;-77
2021/08/31 09:23:21;;;;;;;6.13;3.70;;;19.50;98.80;;;;;;4993252;28;20025;-80
2021/08/31 09:25:49;;;;;;;7.38;3.30;;;19.80;98.40;;;;;;4994040;28;20033;-82
2021/08/31 09:28:27;;;;;;;11.13;3.97;;;21.00;98.70;;;;;;5016125;28;20105;-80
2021/08/31 09:31:19;;;;;;;5.50;3.42;;;20.00;97.90;;;;;;5009106;28;20234;-79
2021/08/31 09:33:54;;;;;;;6.32;4.07;;;20.10;97.30;;;;;;5006456;28;20040;-79
2021/08/31 09:36:22;;;;;;;8.82;4.18;;;20.20;97.50;;;;;;4996043;28;20026;-79
2021/08/31 09:38:57;;;;;;;6.85;3.70;;;21.10;97.60;;;;;;5001381;28;20033;-80
2021/08/31 09:41:30;;;;;;;5.75;3.95;;;20.20;97.30;;;;;;5012672;28;20022;-81
2021/08/31 09:43:57;;;;;;;6.05;3.80;;;20.30;96.90;;;;;;5002190;28;20703;-76
2021/08/31 09:46:22;;;;;;;5.22;3.40;;;20.40;96.60;;;;;;4998322;28;20025;-80
2021/08/31 09:48:48;;;;;;;5.95;3.20;;;20.40;96.30;;;;;;4993940;28;20049;-79
2021/08/31 09:51:15;;;;;;;5.25;3.22;;;20.40;96.30;;;;;;4992495;28;20026;-82
2021/08/31 09:53:41;;;;;;;4.88;3.10;;;20.60;96.00;;;;;;4996027;28;20025;-80
2021/08/31 09:56:14;;;;;;;6.10;3.65;;;20.50;95.70;;;;;;4992154;28;20208;-79
2021/08/31 09:58:44;;;;;;;5.07;3.17;;;20.50;95.70;;;;;;4999782;28;20030;-79
2021/08/31 10:01:10;;;;;;;4.40;3.10;;;20.50;95.40;;;;;;5015529;28;20022;-77
2021/08/31 10:03:39;;;;;;;5.22;2.80;;;20.40;95.40;;;;;;4997668;28;20045;-80
2021/08/31 10:06:06;;;;;;;5.70;3.67;;;20.40;95.60;;;;;;5016577;28;20482;-79
2021/08/31 10:08:37;;;;;;;5.82;3.42;;;20.30;95.90;;;;;;4997499;28;20026;-78
2021/08/31 10:11:04;;;;;;;4.00;2.97;;;20.40;95.70;;;;;;4996899;28;20022;-79
2021/08/31 10:13:37;;;;;;;5.07;3.30;;;20.80;96.30;;;;;;4999121;28;20034;-80
2021/08/31 10:16:03;;;;;;;7.07;3.70;;;20.60;95.80;;;;;;4997803;28;20447;-79
2021/08/31 10:18:29;;;;;;;5.70;3.20;;;20.70;95.40;;;;;;5016036;28;20526;-79
2021/08/31 10:21:01;;;;;;;4.78;2.80;;;20.90;95.20;;;;;;4991575;28;20170;-80
2021/08/31 10:23:37;;;;;;;5.07;2.90;;;21.10;94.60;;;;;;4999081;28;20057;-78
2021/08/31 10:26:34;;;;;;;4.35;3.05;;;21.30;94.40;;;;;;4989972;28;20116;-78
2021/08/31 10:29:18;;;;;;;5.38;3.20;;;21.40;94.50;;;;;;5011656;28;20061;-78
2021/08/31 10:31:46;;;;;;;5.30;3.38;;;21.20;93.80;;;;;;5012372;28;20025;-78
2021/08/31 10:34:30;;;;;;;5.63;3.15;;;21.20;94.20;;;;;;4993952;28;20042;-76
2021/08/31 10:37:08;;;;;;;3.50;2.47;;;21.20;92.70;;;;;;5013551;28;20037;-78
2021/08/31 10:39:47;;;;;;;4.75;2.88;;;21.30;92.50;;;;;;5016069;28;20026;-78
2021/08/31 10:42:32;;;;;;;5.40;2.53;;;21.70;91.50;;;;;;5011073;28;20561;-78
2021/08/31 10:45:00;;;;;;;3.63;2.60;;;21.70;90.90;;;;;;4990599;28;20034;-78
2021/08/31 10:47:34;;;;;;;3.47;2.25;;;21.70;90.90;;;;;;4999027;28;20022;-78
2021/08/31 10:50:00;;;;;;;4.18;2.83;;;21.90;91.00;;;;;;5010958;28;20030;-78
2021/08/31 10:52:39;;;;;;;5.90;3.08;;;22.00;90.90;;;;;;5011661;28;20030;-80
2021/08/31 10:55:18;;;;;;;6.93;2.78;;;22.20;91.10;;;;;;4996485;28;20026;-77
2021/08/31 10:57:44;;;;;;;3.60;2.72;;;22.30;90.60;;;;;;4996427;28;20080;-77
2021/08/31 11:00:16;;;;;;;4.28;2.92;;;22.30;90.20;;;;;;4999207;28;20439;-78
2021/08/31 11:02:48;;;;;;;5.32;2.63;;;22.20;90.60;;;;;;4995721;28;20025;-79
2021/08/31 11:05:25;;;;;;;4.30;3.00;;;22.00;91.10;;;;;;5008697;28;20029;-78
2021/08/31 11:08:00;;;;;;;4.32;2.80;;;21.70;91.10;;;;;;5007369;28;20494;-80
2021/08/31 11:10:31;;;;;;;4.18;2.92;;;21.40;91.80;;;;;;5007225;28;20088;-78
2021/08/31 11:13:17;;;;;;;5.53;2.90;;;21.40;91.70;;;;;;4996084;28;20029;-81
2021/08/31 11:15:44;;;;;;;4.03;2.80;;;21.40;91.70;;;;;;5010817;28;20046;-78
2021/08/31 11:18:12;;;;;;;5.00;3.10;;;21.40;91.70;;;;;;4996279;28;20068;-78
2021/08/31 11:20:40;;;;;;;5.38;3.20;;;22.90;91.90;;;;;;5007803;28;20125;-79
2021/08/31 11:23:15;;;;;;;6.72;2.83;;;21.70;91.50;;;;;;5007926;28;20033;-79
2021/08/31 11:25:46;;;;;;;3.90;2.42;;;21.90;91.20;;;;;;4998132;28;20033;-76
2021/08/31 11:28:21;;;;;;;5.20;2.80;;;22.20;89.90;;;;;;4993632;28;20018;-77
2021/08/31 11:30:59;;;;;;;4.30;2.40;;;22.50;90.20;;;;;;4996159;28;20033;-78
2021/08/31 11:33:53;;;;;;;5.85;2.58;;;22.80;87.10;;;;;;4990990;28;20429;-80
2021/08/31 11:36:22;;;;;;;4.47;2.97;;;22.60;86.80;;;;;;4985749;28;20042;-76
2021/08/31 11:38:55;;;;;;;5.68;3.03;;;22.50;88.70;;;;;;4995149;28;20029;-78
2021/08/31 11:41:24;;;;;;;5.07;3.08;;;22.30;88.40;;;;;;5016410;28;20476;-77
2021/08/31 11:43:50;;;;;;;5.93;2.88;;;22.10;89.70;;;;;;5006219;28;20049;-79
2021/08/31 11:46:31;;;;;;;3.75;2.67;;;22.10;90.20;;;;;;5007119;28;20022;-77
2021/08/31 11:49:24;;;;;;;5.40;3.00;;;22.00;88.70;;;;;;5010077;28;20060;-78
2021/08/31 11:52:11;;;;;;;4.60;2.58;;;21.90;89.20;;;;;;4994246;28;20519;-79
2021/08/31 11:54:45;;;;;;;7.47;2.72;;;21.80;90.10;;;;;;5008267;28;20029;-76
2021/08/31 11:57:14;;;;;;;5.15;3.05;;;21.70;90.00;;;;;;5009328;28;20113;-76
2021/08/31 11:59:44;;;;;;;5.22;3.20;;;21.60;90.40;;;;;;4987546;28;20099;-78
2021/08/31 12:02:14;;;;;;;4.25;2.78;;;23.20;90.20;;;;;;5008001;28;20550;-78
2021/08/31 12:04:45;;;;;;;3.85;2.60;;;21.70;90.20;;;;;;5009597;28;20042;-78
2021/08/31 12:07:13;;;;;;;5.57;2.83;;;21.40;90.80;;;;;;5006460;28;20029;-77
2021/08/31 12:09:44;;;;;;;4.50;2.60;;;21.50;91.00;;;;;;4989594;28;20492;-79
2021/08/31 12:12:11;;;;;;;4.15;2.50;;;21.50;90.70;;;;;;5004855;28;20029;-78
2021/08/31 12:14:37;;;;;;;4.20;2.97;;;21.40;90.80;;;;;;5002882;28;20400;-77
2021/08/31 12:17:03;;;;;;;4.72;2.85;;;21.30;90.90;;;;;;5010887;28;20101;-79
2021/08/31 12:19:29;;;;;;;4.72;2.63;;;21.80;90.50;;;;;;5010305;28;20869;-77
2021/08/31 12:22:07;;;;;;;3.90;2.45;;;22.50;90.40;;;;;;4992745;28;20026;-78
2021/08/31 12:24:33;;;;;;;5.30;2.78;;;22.10;88.10;;;;;;4985748;28;20089;-79
2021/08/31 12:27:12;;;;;;;4.35;2.72;;;22.30;87.50;;;;;;4994630;28;20125;-78
2021/08/31 12:30:04;;;;;;;4.60;2.75;;;22.30;87.80;;;;;;5007500;28;20050;-80
2021/08/31 12:32:31;;;;;;;4.75;2.97;;;22.10;88.80;;;;;;4983286;28;20045;-79
2021/08/31 12:35:25;;;;;;;6.10;2.60;;;23.30;89.50;;;;;;5006853;28;20026;-79
2021/08/31 12:38:11;;;;;;;3.78;2.70;;;21.80;89.00;;;;;;5012278;28;20030;-78
2021/08/31 12:40:39;;;;;;;4.20;2.65;;;21.70;89.90;;;;;;4993282;28;20038;-79
2021/08/31 12:43:13;;;;;;;4.38;2.92;;;21.60;90.30;;;;;;4999172;28;20926;-80
2021/08/31 12:45:39;;;;;;;6.88;3.38;;;21.60;90.80;;;;;;5000926;28;20562;-80
2021/08/31 12:48:06;;;;;;;3.97;2.60;;;21.50;90.30;;;;;;4985639;28;20095;-80
2021/08/31 12:50:32;;;;;;;5.40;3.20;;;22.40;90.60;;;;;;4988605;28;20038;-80
2021/08/31 12:53:09;;;;;;;3.97;2.60;;;21.20;90.80;;;;;;5003999;28;20022;-80
2021/08/31 12:55:36;;;;;;;4.32;2.90;;;21.10;91.10;;;;;;4988993;28;20036;-80
2021/08/31 12:58:25;;;;;;;4.53;2.60;;;20.90;91.80;;;;;;4990698;28;20038;-80
2021/08/31 13:01:15;;;;;;;4.35;2.83;;;20.90;91.10;;;;;;5000011;28;20094;-81